Time;durP1;ratioP1;P1;durP2;ratioP2;P2;SDS_P1;SDS_P2;PMS_P1;PMS_P2;Temp;Humidity;BMP_temperature;BMP_pressure;BME280_temperature;BME280_humidity;BME280_pressure;Samples;Min_cycle;Max_cycle;Signal;HPM_P1;HPM_P2
2021/11/17 02:28:01;;;;;;;;;38.50;32.00;;;;;12.71;79.56;101591.34;146618;637;46021;-73
2021/11/17 02:31:05;;;;;;;;;40.00;32.50;;;;;12.64;79.90;101599.59;146614;589;46016;-73
2021/11/17 02:34:37;;;;;;;;;34.50;32.75;;;;;11.60;81.09;101427.19;146617;590;46021;-73
2021/11/17 02:37:25;;;;;;;;;40.75;33.75;;;;;12.54;81.14;101586.00;146614;581;46020;-74
2021/11/17 02:40:42;;;;;;;;;34.50;30.25;;;;;12.54;79.78;101591.19;146619;594;45020;-73
2021/11/17 02:43:54;;;;;;;;;26.50;24.75;;;;;12.20;80.18;101521.63;146611;573;45904;-71
2021/11/17 02:47:13;;;;;;;;;32.75;29.00;;;;;11.51;80.79;101403.28;146619;570;46008;-69
2021/11/17 02:50:29;;;;;;;;;38.50;32.50;;;;;11.70;80.52;101444.22;146614;585;45907;-70
2021/11/17 02:53:44;;;;;;;;;35.25;30.00;;;;;12.57;80.73;101593.97;146617;607;45026;-74
2021/11/17 02:57:04;;;;;;;;;30.50;26.25;;;;;12.54;81.29;101581.66;146613;605;46016;-74
2021/11/17 03:00:18;;;;;;;;;35.75;29.25;;;;;12.57;81.08;101581.84;146616;569;46020;-74
2021/11/17 03:03:35;;;;;;;;;25.75;24.75;;;;;12.58;80.68;101581.03;146612;593;46017;-73
2021/11/17 03:06:31;;;;;;;;;27.50;26.00;;;;;12.59;81.25;101576.75;146617;607;46008;-73
2021/11/17 03:09:31;;;;;;;;;29.00;25.00;;;;;12.59;82.02;101574.16;146613;584;46017;-72
2021/11/17 03:12:34;;;;;;;;;26.50;22.50;;;;;12.58;81.52;101562.81;146617;613;46021;-71
2021/11/17 03:15:44;;;;;;;;;29.00;25.25;;;;;12.58;82.47;101562.81;146616;613;46010;-72
2021/11/17 03:19:04;;;;;;;;;27.50;25.00;;;;;12.58;81.79;101562.81;146618;619;46020;-72
2021/11/17 03:22:09;;;;;;;;;28.25;26.25;;;;;12.57;80.99;101555.84;146615;593;46016;-71
2021/11/17 03:25:14;;;;;;;;;34.25;28.00;;;;;12.60;81.30;101561.22;146614;587;46020;-71
2021/11/17 03:28:27;;;;;;;;;31.50;28.25;;;;;12.65;80.52;101570.19;146611;569;46019;-75
2021/11/17 03:31:37;;;;;;;;;27.50;26.00;;;;;12.66;80.95;101571.06;146616;605;46020;-70
2021/11/17 03:34:46;;;;;;;;;28.50;26.00;;;;;12.68;80.55;101572.97;146616;589;46011;-70
2021/11/17 03:37:57;;;;;;;;;27.75;22.75;;;;;11.59;81.26;101382.94;146617;614;46020;-70
2021/11/17 03:41:00;;;;;;;;;31.50;27.00;;;;;12.67;81.28;101585.87;146614;614;46016;-70
2021/11/17 03:44:11;;;;;;;;;30.75;27.50;;;;;12.67;80.99;101591.06;146615;639;46020;-70
2021/11/17 03:47:03;;;;;;;;;28.00;26.00;;;;;12.67;80.71;101588.47;146612;589;47018;-70
2021/11/17 03:50:22;;;;;;;;;37.50;32.25;;;;;11.68;83.02;101418.16;146619;734;45021;-72
2021/11/17 03:53:44;;;;;;;;;37.00;32.00;;;;;12.12;82.37;101513.41;146611;570;46016;-69
2021/11/17 03:57:12;;;;;;;;;30.50;25.50;;;;;11.48;81.66;101406.59;146616;584;46021;-74
2021/11/17 04:00:44;;;;;;;;;29.75;27.00;;;;;12.53;81.75;101589.41;146613;563;46016;-74
2021/11/17 04:04:11;;;;;;;;;29.25;27.75;;;;;12.52;80.84;101582.37;146615;571;46012;-72
2021/11/17 04:07:45;;;;;;;;;30.75;25.00;;;;;12.16;80.73;101517.97;146609;569;47906;-71
2021/11/17 04:11:10;;;;;;;;;33.25;30.75;;;;;11.46;81.34;101400.41;146613;659;46021;-72
2021/11/17 04:14:03;;;;;;;;;39.50;33.00;;;;;12.52;81.48;101578.06;146610;563;46016;-72
2021/11/17 04:16:58;;;;;;;;;34.25;28.75;;;;;12.51;81.77;101580.59;146612;588;46031;-71
2021/11/17 04:20:01;;;;;;;;;28.25;26.25;;;;;12.50;81.21;101586.63;146612;563;46019;-71
2021/11/17 04:23:10;;;;;;;;;26.00;23.00;;;;;12.46;82.21;101588.12;146612;609;46020;-70
2021/11/17 04:26:17;;;;;;;;;25.00;24.75;;;;;12.43;82.47;101594.09;146610;602;46017;-70
2021/11/17 04:29:20;;;;;;;;;26.50;23.25;;;;;12.40;81.91;101593.91;146608;574;46020;-71
2021/11/17 04:32:32;;;;;;;;;35.00;31.50;;;;;12.39;81.99;101592.09;146611;600;45905;-71
2021/11/17 04:35:37;;;;;;;;;28.00;24.25;;;;;12.42;81.27;101596.56;146615;582;46020;-69
2021/11/17 04:38:46;;;;;;;;;27.25;25.50;;;;;12.44;81.38;101598.47;146612;578;45904;-70
2021/11/17 04:41:46;;;;;;;;;29.75;27.50;;;;;12.22;80.93;101554.72;146615;607;47010;-69
2021/11/17 04:44:42;;;;;;;;;24.50;23.00;;;;;12.53;81.22;101603.31;146610;612;46016;-69
2021/11/17 04:47:39;;;;;;;;;32.00;25.50;;;;;12.58;81.14;101609.66;146614;579;46008;-69
2021/11/17 04:50:44;;;;;;;;;30.25;27.25;;;;;12.62;81.23;101613.34;146610;669;46016;-69
2021/11/17 04:53:34;;;;;;;;;36.25;31.75;;;;;12.67;81.27;101627.50;146613;630;46020;-70
2021/11/17 04:56:43;;;;;;;;;39.00;31.00;;;;;12.68;81.10;101626.72;146610;574;47018;-70
2021/11/17 05:00:09;;;;;;;;;30.25;25.25;;;;;12.69;80.75;101631.97;146611;620;46008;-70
2021/11/17 05:03:15;;;;;;;;;27.00;26.25;;;;;12.70;81.14;101638.06;146610;649;46016;-70
2021/11/17 05:06:25;;;;;;;;;25.75;23.25;;;;;12.69;80.57;101631.09;146615;577;46008;-70
2021/11/17 05:09:20;;;;;;;;;27.25;25.50;;;;;12.69;81.03;101626.78;146610;593;46016;-68
2021/11/17 05:12:26;;;;;;;;;44.75;35.00;;;;;12.69;81.07;101650.19;146614;597;46021;-69
2021/11/17 05:15:38;;;;;;;;;60.25;45.25;;;;;12.64;81.11;101633.41;146609;590;46016;-70
2021/11/17 05:18:58;;;;;;;;;37.25;33.00;;;;;12.07;80.87;101540.84;146612;564;46020;-70
2021/11/17 05:22:08;;;;;;;;;35.50;31.00;;;;;12.56;81.02;101633.81;146608;571;46016;-69
2021/11/17 05:25:12;;;;;;;;;38.50;32.25;;;;;12.10;82.00;101547.91;146618;612;46021;-69
2021/11/17 05:28:11;;;;;;;;;45.00;33.00;;;;;12.60;82.00;101651.38;146608;757;46016;-69
2021/11/17 05:31:26;;;;;;;;;33.50;28.25;;;;;12.58;81.46;101647.78;146612;633;46020;-70
2021/11/17 05:34:36;;;;;;;;;33.25;29.75;;;;;12.54;83.04;101656.22;146610;598;46016;-70
2021/11/17 05:37:42;;;;;;;;;62.00;47.50;;;;;12.48;82.72;101654.16;146612;605;46020;-72
2021/11/17 05:41:02;;;;;;;;;56.25;43.25;;;;;11.55;82.81;101511.72;146612;579;46010;-72
2021/11/17 05:44:17;;;;;;;;;38.75;32.00;;;;;12.43;82.17;101674.72;146615;579;45020;-72
2021/11/17 05:47:23;;;;;;;;;28.25;27.50;;;;;12.40;81.65;101679.72;146610;590;46011;-69
2021/11/17 05:50:31;;;;;;;;;37.75;32.00;;;;;12.41;81.31;101680.63;146615;603;46007;-69
2021/11/17 05:53:30;;;;;;;;;34.25;31.25;;;;;12.43;80.78;101687.72;146613;622;46011;-69
2021/11/17 05:56:30;;;;;;;;;34.25;29.75;;;;;12.45;81.38;101686.09;146615;575;46008;-69
2021/11/17 05:59:20;;;;;;;;;32.25;25.75;;;;;12.52;80.88;101696.84;146609;638;47018;-68
2021/11/17 06:02:21;;;;;;;;;32.75;30.75;;;;;12.55;81.20;101700.53;146607;570;47008;-69
2021/11/17 06:04:54;;;;;;;;;31.50;25.50;;;;;12.56;80.79;101696.25;146608;563;46016;-69
2021/11/17 06:07:27;;;;;;;;;28.75;25.00;;;;;12.57;80.75;101698.91;146618;595;46020;-67
2021/11/17 06:10:14;;;;;;;;;25.50;23.25;;;;;12.53;81.11;101699.56;146609;727;47021;-69
2021/11/17 06:12:49;;;;;;;;;28.50;26.75;;;;;12.53;80.84;101703.88;146614;627;46020;-71
2021/11/17 06:15:24;;;;;;;;;36.75;31.00;;;;;12.53;81.12;101699.56;146610;601;46016;-71
2021/11/17 06:18:02;;;;;;;;;53.50;41.50;;;;;12.55;81.32;101700.53;146616;575;46021;-72
2021/11/17 06:20:36;;;;;;;;;52.00;41.50;;;;;12.53;81.15;101707.38;146611;578;46016;-72
2021/11/17 06:23:15;;;;;;;;;56.50;43.75;;;;;12.55;81.11;101712.63;146618;576;45022;-70
2021/11/17 06:25:49;;;;;;;;;44.50;35.25;;;;;12.54;81.45;101710.84;146605;572;47010;-71
2021/11/17 06:28:27;;;;;;;;;43.50;35.75;;;;;12.54;82.51;101708.25;146611;599;46020;-70
2021/11/17 06:31:03;;;;;;;;;55.50;43.50;;;;;12.51;82.04;101708.97;146610;576;46017;-71
2021/11/17 06:33:36;;;;;;;;;55.75;43.25;;;;;12.48;81.87;101711.37;146610;563;46020;-75
2021/11/17 06:36:11;;;;;;;;;53.50;44.00;;;;;12.45;81.93;101709.50;146612;619;45905;-75
2021/11/17 06:38:45;;;;;;;;;61.50;45.25;;;;;12.44;81.70;101710.31;146613;628;46021;-75
2021/11/17 06:41:20;;;;;;;;;63.00;48.75;;;;;12.43;81.55;101707.63;146610;564;46016;-73
2021/11/17 06:43:54;;;;;;;;;62.25;47.75;;;;;12.43;81.51;101705.94;146616;571;46020;-74
2021/11/17 06:46:28;;;;;;;;;56.50;44.50;;;;;12.48;81.68;101716.59;146610;619;46016;-71
2021/11/17 06:49:02;;;;;;;;;50.50;41.00;;;;;12.53;82.00;101709.06;146614;630;45914;-71
2021/11/17 06:51:36;;;;;;;;;56.50;44.50;;;;;12.57;81.88;101716.25;146612;602;46010;-73
2021/11/17 06:54:10;;;;;;;;;50.50;41.00;;;;;12.61;81.86;101711.28;146611;569;46008;-72
2021/11/17 06:56:44;;;;;;;;;49.00;40.50;;;;;12.65;81.78;101707.19;146609;622;47010;-73
2021/11/17 06:59:18;;;;;;;;;48.00;38.00;;;;;12.69;81.69;101719.56;146614;579;46008;-71
2021/11/17 07:01:52;;;;;;;;;48.25;39.50;;;;;12.71;81.47;101707.56;146611;629;46017;-70
2021/11/17 07:04:26;;;;;;;;;54.00;43.50;;;;;12.71;81.38;101704.94;146611;596;46020;-73
2021/11/17 07:07:00;;;;;;;;;50.50;40.25;;;;;12.73;81.31;101702.41;146609;620;46010;-72
2021/11/17 07:09:34;;;;;;;;;46.50;35.75;;;;;12.74;81.31;101712.94;146615;650;45021;-75
2021/11/17 07:12:09;;;;;;;;;39.75;32.00;;;;;12.76;81.12;101711.28;146611;613;46010;-73
2021/11/17 07:14:45;;;;;;;;;40.00;34.25;;;;;12.75;81.08;101711.22;146612;606;46008;-73
2021/11/17 07:17:19;;;;;;;;;47.75;39.00;;;;;12.71;81.24;101712.75;146608;575;46010;-73
2021/11/17 07:19:53;;;;;;;;;42.00;34.75;;;;;12.65;81.12;101715.00;146613;629;46020;-73
2021/11/17 07:22:27;;;;;;;;;47.00;37.50;;;;;12.62;81.02;101704.41;146610;574;46017;-72
2021/11/17 07:25:01;;;;;;;;;54.75;43.75;;;;;12.60;81.07;101712.13;146617;623;46020;-73
2021/11/17 07:27:36;;;;;;;;;55.00;44.00;;;;;12.61;81.01;101710.41;146611;609;46016;-73
2021/11/17 07:30:13;;;;;;;;;47.00;38.25;;;;;12.57;81.13;101701.53;146614;662;46008;-69
2021/11/17 07:32:47;;;;;;;;;42.25;33.25;;;;;12.68;81.20;101709.97;146609;631;46010;-69
2021/11/17 07:35:23;;;;;;;;;39.75;32.50;;;;;12.73;80.65;101715.44;146614;602;46010;-69
2021/11/17 07:38:02;;;;;;;;;44.25;36.25;;;;;12.76;80.29;101710.41;146609;656;47018;-71
2021/11/17 07:40:41;;;;;;;;;42.25;34.75;;;;;12.79;80.38;101716.69;146614;582;46008;-70
2021/11/17 07:43:18;;;;;;;;;43.50;35.50;;;;;12.83;80.34;101709.94;146609;630;46016;-68
2021/11/17 07:45:52;;;;;;;;;32.25;31.00;;;;;12.87;80.57;101718.03;146612;573;46021;-71
2021/11/17 07:48:28;;;;;;;;;39.25;34.00;;;;;12.92;80.65;101718.28;146614;573;46016;-70
2021/11/17 07:51:03;;;;;;;;;41.50;35.25;;;;;12.93;80.14;101721.00;146616;587;46017;-71
2021/11/17 07:53:37;;;;;;;;;40.50;32.50;;;;;12.93;79.78;101721.00;146609;602;46016;-70
2021/11/17 07:56:11;;;;;;;;;48.50;38.50;;;;;12.95;79.62;101723.66;146612;582;47008;-71
2021/11/17 07:58:48;;;;;;;;;43.75;35.25;;;;;12.94;79.40;101722.78;146611;634;46020;-70
2021/11/17 08:01:22;;;;;;;;;48.25;39.25;;;;;12.98;79.34;101734.25;146611;625;47008;-68
2021/11/17 08:03:56;;;;;;;;;40.00;32.50;;;;;13.00;79.18;101729.16;146609;605;46010;-78
2021/11/17 08:06:32;;;;;;;;;40.50;34.50;;;;;13.00;79.11;101732.66;146612;627;46019;-71
2021/11/17 08:09:06;;;;;;;;;39.75;33.50;;;;;13.02;78.92;101733.66;146610;575;46016;-73
2021/11/17 08:11:41;;;;;;;;;40.75;34.00;;;;;13.05;78.70;101733.81;146616;628;46020;-69
2021/11/17 08:14:16;;;;;;;;;45.25;35.50;;;;;13.07;78.96;101733.91;146610;566;46016;-71
2021/11/17 08:16:50;;;;;;;;;39.75;32.25;;;;;13.09;79.42;101737.50;146611;635;46020;-70
2021/11/17 08:19:24;;;;;;;;;40.50;33.75;;;;;13.10;79.67;101737.56;146610;638;46010;-70
2021/11/17 08:21:58;;;;;;;;;37.75;31.75;;;;;13.10;79.36;101739.28;146613;601;46020;-71
2021/11/17 08:24:32;;;;;;;;;37.50;32.25;;;;;13.08;79.24;101746.09;146611;589;46030;-70
2021/11/17 08:27:06;;;;;;;;;41.25;35.00;;;;;13.08;79.21;101740.88;146616;711;46020;-72
2021/11/17 08:29:40;;;;;;;;;39.75;32.25;;;;;13.06;79.27;101745.13;146609;639;47010;-72
2021/11/17 08:32:14;;;;;;;;;40.00;33.75;;;;;13.07;79.38;101741.72;146618;611;46008;-72
2021/11/17 08:34:48;;;;;;;;;41.50;34.25;;;;;13.09;79.96;101743.59;146612;607;45020;-71
2021/11/17 08:37:23;;;;;;;;;43.25;34.50;;;;;13.10;79.09;101740.16;146613;570;46021;-73
2021/11/17 08:39:58;;;;;;;;;45.50;35.75;;;;;13.12;79.30;101740.28;146605;607;47904;-74
2021/11/17 08:42:31;;;;;;;;;55.00;42.50;;;;;13.17;79.49;101744.91;146615;578;46020;-73
2021/11/17 08:45:06;;;;;;;;;48.00;39.50;;;;;13.20;79.71;101749.41;146609;565;47011;-75
2021/11/17 08:47:41;;;;;;;;;31.75;26.50;;;;;13.24;79.88;101740.97;146611;599;46020;-80
2021/11/17 08:50:18;;;;;;;;;38.75;32.25;;;;;13.32;80.32;101744.91;146612;575;46016;-78
2021/11/17 08:52:53;;;;;;;;;36.50;31.00;;;;;13.37;79.96;101747.81;146616;635;46021;-76
2021/11/17 08:55:29;;;;;;;;;36.25;32.25;;;;;13.45;80.26;101756.91;146611;579;46016;-82
2021/11/17 08:58:04;;;;;;;;;48.75;38.25;;;;;13.51;80.11;101746.84;146615;627;46020;-80
2021/11/17 09:00:39;;;;;;;;;48.50;39.75;;;;;13.55;79.49;101747.91;146611;585;46016;-81
2021/11/17 09:03:14;;;;;;;;;49.25;38.00;;;;;13.55;79.62;101745.31;146609;702;46020;-81
2021/11/17 09:05:55;;;;;;;;;35.00;31.75;;;;;13.55;79.40;101748.84;146611;569;47010;-84
2021/11/17 09:08:31;;;;;;;;;33.50;30.00;;;;;12.71;79.54;101601.75;146617;620;46021;-84
2021/11/17 09:11:09;;;;;;;;;34.50;30.75;;;;;13.65;79.69;101754.56;146610;586;47010;-83
2021/11/17 09:13:44;;;;;;;;;43.00;35.00;;;;;13.72;79.14;101746.25;146614;618;46009;-85
2021/11/17 09:16:19;;;;;;;;;41.75;34.25;;;;;13.77;79.00;101753.50;146612;573;47010;-84
2021/11/17 09:18:53;;;;;;;;;41.25;34.00;;;;;13.81;78.61;101750.25;146615;593;46020;-85
2021/11/17 09:21:27;;;;;;;;;40.75;33.00;;;;;13.84;78.47;101749.53;146608;596;46017;-84
2021/11/17 09:24:01;;;;;;;;;36.00;31.75;;;;;13.83;78.21;101753.84;146614;665;46020;-83
2021/11/17 09:26:36;;;;;;;;;31.00;29.50;;;;;13.84;78.08;101744.31;146612;566;46010;-84
2021/11/17 09:29:10;;;;;;;;;39.00;34.00;;;;;13.85;77.95;101728.72;146614;600;46021;-82
2021/11/17 09:31:47;;;;;;;;;33.75;31.25;;;;;13.75;77.86;101707.31;146611;586;46016;-83
2021/11/17 09:34:21;;;;;;;;;39.00;33.00;;;;;13.93;78.23;101731.78;146618;594;47008;-84
2021/11/17 09:36:55;;;;;;;;;39.50;34.25;;;;;13.84;77.67;101713.91;146608;573;46016;-84
2021/11/17 09:39:29;;;;;;;;;41.50;34.25;;;;;13.98;77.67;101735.50;146614;626;46020;-82
2021/11/17 09:42:04;;;;;;;;;44.00;35.25;;;;;13.97;77.58;101733.72;146609;612;46016;-83
2021/11/17 09:44:43;;;;;;;;;44.00;35.00;;;;;14.00;77.73;101740.81;146614;570;46021;-83
2021/11/17 09:47:23;;;;;;;;;40.75;33.00;;;;;14.02;77.79;101727.03;146611;611;47010;-83
2021/11/17 09:50:31;;;;;;;;;43.25;35.50;;;;;13.85;77.50;101692.22;146611;590;46008;-84
2021/11/17 09:53:19;;;;;;;;;48.50;38.25;;;;;14.09;76.99;101728.25;146611;666;46016;-84
2021/11/17 09:56:03;;;;;;;;;42.00;35.50;;;;;14.01;76.85;101717.41;146613;630;46025;-83
2021/11/17 09:58:44;;;;;;;;;40.00;33.00;;;;;13.96;76.79;101729.31;146612;579;46025;-84
2021/11/17 10:01:29;;;;;;;;;41.75;32.00;;;;;13.85;77.01;101726.13;146613;566;46020;-83
2021/11/17 10:04:39;;;;;;;;;38.50;32.75;;;;;12.73;77.41;101547.19;146611;573;46016;-83
2021/11/17 10:11:10;;;;;;;;;37.75;30.00;;;;;13.40;78.39;101696.75;146617;606;46010;-82
2021/11/17 10:13:56;;;;;;;;;38.75;33.00;;;;;13.52;78.40;101711.25;146617;611;46008;-76
2021/11/17 10:16:31;;;;;;;;;33.25;30.00;;;;;13.49;78.34;101712.00;146608;586;47018;-76
2021/11/17 10:19:25;;;;;;;;;34.00;30.75;;;;;13.43;78.38;101705.53;146613;594;46020;-77
2021/11/17 10:22:25;;;;;;;;;34.50;29.25;;;;;13.00;78.81;101641.53;146608;569;46905;-76
2021/11/17 10:25:13;;;;;;;;;36.25;29.75;;;;;13.37;78.96;101706.12;146610;586;46020;-76
2021/11/17 10:28:00;;;;;;;;;38.50;31.25;;;;;13.37;79.03;101704.41;146608;613;47010;-77
2021/11/17 10:30:39;;;;;;;;;36.75;31.50;;;;;13.37;79.11;101693.09;146616;573;46008;-76
2021/11/17 10:33:18;;;;;;;;;42.75;35.75;;;;;13.38;78.81;101690.56;146610;590;46016;-77
2021/11/17 10:36:08;;;;;;;;;40.50;33.00;;;;;13.39;79.13;101681.03;146617;631;46008;-76
2021/11/17 10:38:49;;;;;;;;;42.50;35.00;;;;;13.42;79.10;101682.91;146609;605;46016;-80
2021/11/17 10:41:33;;;;;;;;;46.25;35.75;;;;;13.44;78.88;101686.50;146614;647;45020;-78
2021/11/17 10:44:13;;;;;;;;;36.00;30.00;;;;;13.47;79.01;101679.75;146609;591;46017;-77
2021/11/17 10:47:00;;;;;;;;;44.00;36.00;;;;;13.50;78.79;101685.13;146612;565;46020;-76
2021/11/17 10:49:35;;;;;;;;;39.50;32.50;;;;;13.48;79.02;101680.63;146610;598;47011;-76
2021/11/17 10:52:12;;;;;;;;;41.75;35.25;;;;;13.33;79.15;101660.78;146608;574;46020;-77
2021/11/17 10:54:57;;;;;;;;;42.75;36.25;;;;;13.48;78.88;101685.84;146613;620;46025;-77
2021/11/17 10:57:38;;;;;;;;;29.50;27.00;;;;;13.48;78.73;101680.63;146613;653;46021;-76
2021/11/17 11:00:14;;;;;;;;;24.25;23.25;;;;;13.48;78.76;101683.25;146611;612;46010;-76
2021/11/17 11:02:50;;;;;;;;;26.00;22.75;;;;;13.49;78.54;101677.22;146613;569;46020;-76
2021/11/17 11:05:32;;;;;;;;;36.75;33.25;;;;;13.43;78.16;101667.37;146610;638;46905;-77
2021/11/17 11:08:15;;;;;;;;;69.25;53.25;;;;;13.31;78.16;101651.97;146611;569;46020;-76
2021/11/17 11:10:56;;;;;;;;;40.25;32.25;;;;;13.45;78.60;101675.25;146609;569;46016;-75
2021/11/17 11:13:53;;;;;;;;;37.00;32.50;;;;;13.43;78.74;101662.16;146612;571;46021;-76
2021/11/17 11:16:50;;;;;;;;;43.50;34.50;;;;;13.45;78.63;101664.84;146610;616;46016;-76
2021/11/17 11:19:34;;;;;;;;;41.00;33.50;;;;;13.43;78.85;101670.00;146611;633;46010;-76
2021/11/17 11:22:13;;;;;;;;;52.00;43.00;;;;;13.42;79.01;101668.16;146612;631;46016;-77
2021/11/17 11:25:00;;;;;;;;;56.50;43.75;;;;;13.39;78.96;101673.22;146613;610;46020;-76
2021/11/17 11:27:38;;;;;;;;;46.75;37.75;;;;;13.36;79.09;101662.62;146610;654;46017;-76
2021/11/17 11:30:38;;;;;;;;;54.00;42.75;;;;;13.02;79.05;101613.88;146615;602;46010;-76
2021/11/17 11:33:49;;;;;;;;;53.50;43.00;;;;;13.33;79.03;101667.66;146610;640;46016;-76
2021/11/17 11:36:47;;;;;;;;;48.00;36.75;;;;;13.33;78.94;101667.66;146615;577;46008;-76
2021/11/17 11:39:32;;;;;;;;;45.50;36.75;;;;;13.31;78.96;101670.19;146608;574;46016;-76
2021/11/17 11:42:54;;;;;;;;;30.25;29.00;;;;;13.27;78.73;101660.44;146612;628;46021;-75
2021/11/17 11:45:47;;;;;;;;;24.00;23.75;;;;;13.23;78.64;101666.22;146609;573;46016;-77
2021/11/17 11:49:00;;;;;;;;;39.00;34.25;;;;;12.64;79.17;101559.66;146611;622;46020;-77
2021/11/17 11:52:16;;;;;;;;;30.25;25.25;;;;;12.45;78.76;101535.22;146608;576;46017;-77
2021/11/17 11:55:19;;;;;;;;;30.00;27.50;;;;;12.52;78.63;101551.16;146614;600;46008;-76
2021/11/17 11:57:57;;;;;;;;;33.00;28.75;;;;;13.12;79.58;101657.84;146610;578;46016;-78
2021/11/17 12:00:40;;;;;;;;;58.25;46.25;;;;;11.14;79.22;101305.06;146614;630;46029;-77
2021/11/17 12:03:20;;;;;;;;;34.75;31.25;;;;;13.10;79.72;101642.94;146611;565;46016;-77
2021/11/17 12:06:10;;;;;;;;;43.00;35.25;;;;;13.09;79.47;101641.16;146616;654;46021;-77
2021/11/17 12:09:18;;;;;;;;;32.50;29.00;;;;;13.08;79.72;101649.75;146614;602;46016;-77
2021/11/17 12:11:59;;;;;;;;;29.50;24.75;;;;;13.07;79.56;101647.97;146612;662;46020;-77
2021/11/17 12:14:44;;;;;;;;;24.75;24.75;;;;;13.04;79.38;101646.09;146613;713;46010;-77
2021/11/17 12:17:27;;;;;;;;;34.25;29.50;;;;;13.03;79.41;101651.22;146613;609;46020;-77
2021/11/17 12:20:03;;;;;;;;;25.75;23.25;;;;;12.84;79.88;101621.56;146614;724;46010;-78
2021/11/17 12:22:48;;;;;;;;;35.75;30.25;;;;;12.99;79.66;101646.63;146613;578;46020;-77
2021/11/17 12:25:38;;;;;;;;;54.75;41.50;;;;;12.92;79.70;101635.88;146611;581;46016;-77
2021/11/17 12:28:20;;;;;;;;;31.75;27.00;;;;;12.91;80.03;101641.00;146615;619;46012;-77
2021/11/17 12:31:08;;;;;;;;;25.00;21.25;;;;;12.89;80.47;101643.50;146616;581;45016;-77
2021/11/17 12:33:49;;;;;;;;;25.00;22.50;;;;;12.87;80.95;101642.53;146616;583;46020;-75
2021/11/17 12:36:35;;;;;;;;;32.00;26.00;;;;;12.86;80.98;101647.66;146611;689;46032;-77
2021/11/17 12:39:20;;;;;;;;;24.25;23.75;;;;;12.82;80.85;101641.38;146615;609;45020;-77
2021/11/17 12:42:00;;;;;;;;;25.00;24.00;;;;;12.70;81.57;101627.66;146604;643;47017;-77
2021/11/17 12:44:44;;;;;;;;;33.25;29.75;;;;;12.77;81.00;101637.59;146611;566;46008;-78
2021/11/17 12:47:24;;;;;;;;;33.50;27.25;;;;;12.80;80.98;101649.91;146611;573;46016;-77
2021/11/17 12:50:27;;;;;;;;;42.25;35.00;;;;;12.04;80.52;101511.16;146616;694;45021;-78
2021/11/17 12:53:19;;;;;;;;;51.50;43.50;;;;;12.80;80.53;101647.31;146608;610;46018;-79
2021/11/17 12:56:25;;;;;;;;;51.25;42.25;;;;;12.81;80.66;101650.00;146613;564;46009;-77
2021/11/17 12:59:13;;;;;;;;;49.00;40.25;;;;;12.81;80.01;101641.31;146612;600;46029;-77
2021/11/17 13:02:18;;;;;;;;;54.75;43.00;;;;;12.80;80.24;101639.50;146613;609;46008;-78
2021/11/17 13:04:56;;;;;;;;;46.75;38.25;;;;;12.82;81.01;101641.38;146612;579;46016;-79
2021/11/17 13:07:50;;;;;;;;;50.00;39.25;;;;;12.82;80.27;101641.38;146616;628;45020;-78
2021/11/17 13:10:49;;;;;;;;;55.00;45.00;;;;;12.84;80.30;101646.69;146605;576;47016;-77
2021/11/17 13:13:44;;;;;;;;;59.25;47.75;;;;;12.85;80.69;101641.56;146611;576;46012;-78
2021/11/17 13:16:27;;;;;;;;;38.75;34.25;;;;;12.83;80.74;101642.28;146611;569;46010;-78
2021/11/17 13:19:07;;;;;;;;;45.50;35.25;;;;;12.79;80.50;101635.09;146615;548;46008;-78
2021/11/17 13:21:43;;;;;;;;;51.25;40.00;;;;;12.78;80.74;101631.62;146609;584;46016;-78
2021/11/17 13:24:46;;;;;;;;;49.25;40.75;;;;;12.14;80.69;101516.09;146612;582;46020;-78
2021/11/17 13:27:24;;;;;;;;;49.50;40.50;;;;;12.86;81.22;101632.94;146610;576;46016;-78
2021/11/17 13:30:20;;;;;;;;;49.75;39.50;;;;;12.91;81.44;101641.91;146613;608;46020;-78
2021/11/17 13:32:55;;;;;;;;;45.25;37.50;;;;;12.97;81.09;101632.66;146609;663;46017;-78
2021/11/17 13:35:41;;;;;;;;;44.50;35.00;;;;;13.00;81.02;101638.03;146616;577;45020;-77
2021/11/17 13:38:27;;;;;;;;;34.75;29.00;;;;;13.00;80.58;101632.81;146610;565;46016;-76
2021/11/17 13:41:08;;;;;;;;;36.75;30.75;;;;;12.99;80.62;101639.75;146611;582;46021;-76
2021/11/17 13:43:43;;;;;;;;;37.25;33.25;;;;;12.98;80.85;101629.22;146609;577;46016;-78
2021/11/17 13:46:20;;;;;;;;;36.50;30.50;;;;;13.05;80.48;101639.16;146613;563;46020;-76
2021/11/17 13:48:54;;;;;;;;;41.75;32.75;;;;;13.05;80.48;101636.56;146610;612;46907;-78
2021/11/17 13:51:31;;;;;;;;;34.25;30.00;;;;;13.04;80.17;101633.06;146616;586;46020;-78
2021/11/17 13:54:05;;;;;;;;;32.75;27.75;;;;;13.05;79.95;101640.09;146609;600;46016;-77
2021/11/17 13:56:43;;;;;;;;;30.25;26.25;;;;;13.03;79.04;101631.28;146616;592;46012;-77
2021/11/17 13:59:17;;;;;;;;;17.25;14.50;;;;;13.03;79.57;101636.50;146609;614;46016;-78
2021/11/17 14:01:52;;;;;;;;;28.25;25.25;;;;;13.06;79.35;101647.06;146618;571;45050;-76
2021/11/17 14:04:29;;;;;;;;;27.75;23.25;;;;;13.09;79.99;101639.44;146610;590;46016;-77
2021/11/17 14:07:03;;;;;;;;;26.50;24.25;;;;;13.10;79.42;101641.22;146611;594;46020;-77
2021/11/17 14:09:37;;;;;;;;;26.00;24.00;;;;;13.13;79.16;101640.50;146609;584;45907;-78
2021/11/17 14:12:12;;;;;;;;;31.25;30.00;;;;;13.14;79.26;101642.28;146613;582;46020;-77
2021/11/17 14:14:46;;;;;;;;;41.25;33.50;;;;;13.14;79.07;101645.78;146610;575;46016;-76
2021/11/17 14:17:20;;;;;;;;;34.75;27.00;;;;;13.13;79.19;101640.50;146617;583;46021;-76
2021/11/17 14:19:55;;;;;;;;;29.50;27.00;;;;;13.10;79.19;101638.62;146610;620;46016;-76
2021/11/17 14:22:29;;;;;;;;;32.75;25.50;;;;;13.10;80.02;101642.94;146613;564;46029;-76
2021/11/17 14:25:07;;;;;;;;;26.00;25.00;;;;;12.98;81.17;101629.22;146610;565;47907;-77
2021/11/17 14:27:44;;;;;;;;;29.00;26.25;;;;;12.92;81.11;101645.41;146613;570;46008;-76
2021/11/17 14:30:22;;;;;;;;;30.75;29.50;;;;;12.85;81.44;101645.88;146613;632;46016;-76
2021/11/17 14:32:57;;;;;;;;;27.50;25.25;;;;;12.79;81.31;101650.72;146611;573;46021;-76
2021/11/17 14:35:32;;;;;;;;;34.25;30.75;;;;;12.76;81.58;101653.16;146610;579;46016;-75
2021/11/17 14:38:06;;;;;;;;;34.75;31.75;;;;;12.69;80.92;101645.00;146613;597;46020;-76
2021/11/17 14:40:40;;;;;;;;;30.50;25.50;;;;;12.69;81.30;101651.91;146613;607;46029;-76
2021/11/17 14:43:16;;;;;;;;;46.75;36.25;;;;;12.68;81.49;101653.63;146612;601;46020;-76
2021/11/17 14:45:50;;;;;;;;;49.25;39.50;;;;;12.67;81.02;101658.72;146609;569;46011;-75
2021/11/17 14:48:26;;;;;;;;;35.50;31.75;;;;;12.65;81.21;101663.84;146613;564;46010;-75
2021/11/17 14:51:00;;;;;;;;;33.50;29.75;;;;;12.64;81.42;101661.16;146611;563;46010;-75
2021/11/17 14:53:34;;;;;;;;;28.25;26.00;;;;;12.62;81.16;101666.28;146612;570;46021;-75
2021/11/17 14:56:09;;;;;;;;;30.25;29.00;;;;;12.63;81.16;101665.47;146608;582;46016;-74
2021/11/17 14:58:43;;;;;;;;;35.75;32.00;;;;;12.64;81.77;101666.34;146612;616;46020;-75
2021/11/17 15:01:23;;;;;;;;;28.00;23.50;;;;;12.64;81.67;101663.75;146607;586;47018;-75
2021/11/17 15:03:58;;;;;;;;;41.50;34.75;;;;;12.62;81.70;101658.47;146613;604;46020;-76
2021/11/17 15:06:32;;;;;;;;;42.50;35.75;;;;;12.62;81.57;101660.19;146608;598;46016;-75
2021/11/17 15:09:07;;;;;;;;;45.00;37.50;;;;;12.48;81.47;101639.44;146611;634;46034;-75
2021/11/17 15:12:00;;;;;;;;;44.50;36.00;;;;;12.65;81.49;101663.84;146611;581;46010;-75